createdAt,value
2019-05-20T00:04:48.622Z,67.35
2019-05-20T00:09:56.083Z,68.58
2019-05-20T00:15:03.477Z,67.64
2019-05-20T00:20:11.844Z,67.21
2019-05-20T00:25:19.218Z,68.42
2019-05-20T00:30:26.735Z,67.94
2019-05-20T00:35:34.053Z,69.37
2019-05-20T00:40:41.527Z,68.83
2019-05-20T00:45:49.916Z,68.10
2019-05-20T00:50:57.495Z,67.38
2019-05-20T00:56:05.334Z,67.93
2019-05-20T01:01:12.734Z,69.50
2019-05-20T01:06:20.139Z,68.31
2019-05-20T01:11:27.549Z,69.88
2019-05-20T01:16:34.949Z,69.28
2019-05-20T01:21:42.366Z,68.27
2019-05-20T01:26:49.779Z,69.90
2019-05-20T01:31:57.225Z,69.38
2019-05-20T01:37:04.598Z,68.85
2019-05-20T01:42:11.962Z,68.41
2019-05-20T01:47:19.335Z,68.35
2019-05-20T01:52:26.802Z,69.73
2019-05-20T01:57:34.089Z,70.11
2019-05-20T02:02:41.521Z,70.08
2019-05-20T02:07:48.927Z,69.25
2019-05-20T02:12:56.352Z,69.13
2019-05-20T02:18:03.790Z,70.05
2019-05-20T02:23:15.620Z,69.76
2019-05-20T02:28:23.078Z,70.23
2019-05-20T02:33:47.837Z,70.13
2019-05-20T02:38:39.519Z,70.57
2019-05-20T02:43:46.931Z,70.17
2019-05-20T02:48:54.426Z,70.61
2019-05-20T02:54:03.196Z,72.46
2019-05-20T02:59:10.532Z,73.19
2019-05-20T03:04:17.974Z,73.41
2019-05-20T03:09:25.369Z,71.84
2019-05-20T03:14:32.803Z,71.68
2019-05-20T03:19:40.201Z,71.10
2019-05-20T03:24:47.506Z,70.76
2019-05-20T03:29:54.936Z,71.22
2019-05-20T03:35:02.457Z,73.23
2019-05-20T03:40:10.957Z,73.20
2019-05-20T03:45:18.388Z,72.64
2019-05-20T03:50:25.754Z,74.04
2019-05-20T03:55:33.116Z,73.60
2019-05-20T04:00:46.666Z,74.27
2019-05-20T04:05:53.989Z,74.78
2019-05-20T04:11:01.301Z,73.10
2019-05-20T04:16:08.787Z,72.81
2019-05-20T04:21:16.223Z,73.83
2019-05-20T04:26:23.607Z,73.47
2019-05-20T04:31:31.029Z,72.69
2019-05-20T04:36:38.465Z,71.82
2019-05-20T04:41:45.896Z,71.69
2019-05-20T04:46:53.541Z,71.22
2019-05-20T04:52:00.909Z,71.80
2019-05-20T04:57:09.181Z,72.09
2019-05-20T05:02:16.602Z,71.64
2019-05-20T05:07:25.131Z,72.19
2019-05-20T05:12:32.546Z,71.70
2019-05-20T05:17:40.194Z,72.49
2019-05-20T05:22:47.587Z,71.78
2019-05-20T05:27:55.073Z,71.10
2019-05-20T05:33:02.463Z,70.93
2019-05-20T05:38:10.272Z,71.44
2019-05-20T05:43:17.548Z,72.20
2019-05-20T05:48:25.033Z,70.92
2019-05-20T05:53:32.493Z,71.17
2019-05-20T05:58:39.888Z,70.04
2019-05-20T06:03:47.311Z,70.58
2019-05-20T06:08:54.630Z,69.75
2019-05-20T06:14:02.018Z,69.18
2019-05-20T06:19:09.349Z,69.13
2019-05-20T06:24:16.751Z,69.11
2019-05-20T06:29:24.159Z,70.86
2019-05-20T06:34:32.343Z,70.42
2019-05-20T06:39:39.784Z,70.36
2019-05-20T06:44:53.163Z,70.01
2019-05-20T06:49:56.197Z,69.11
2019-05-20T06:55:03.789Z,68.70
2019-05-20T07:00:12.417Z,68.78
2019-05-20T07:05:19.890Z,68.84
2019-05-20T07:10:27.239Z,68.68
2019-05-20T07:15:34.656Z,69.84
2019-05-20T07:20:42.077Z,66.19
2019-05-20T07:25:49.482Z,64.57
2019-05-20T07:30:56.839Z,64.51
2019-05-20T07:36:04.242Z,64.11
2019-05-20T07:41:11.560Z,62.90
2019-05-20T07:46:20.322Z,63.89
2019-05-20T07:51:28.736Z,61.65
2019-05-20T07:56:40.718Z,62.61
2019-05-20T08:01:48.048Z,64.83
2019-05-20T08:06:55.582Z,65.14
2019-05-20T08:12:03.050Z,64.60
2019-05-20T08:17:10.652Z,64.16
2019-05-20T08:22:18.079Z,63.71
2019-05-20T08:27:25.490Z,64.13
2019-05-20T08:32:32.959Z,64.53
2019-05-20T08:37:45.271Z,66.59
2019-05-20T08:42:49.424Z,67.39
2019-05-20T08:47:56.744Z,68.85
2019-05-20T08:53:04.193Z,69.38
2019-05-20T08:58:11.632Z,67.75
2019-05-20T09:03:19.015Z,67.17
2019-05-20T09:08:26.425Z,65.78
2019-05-20T09:13:33.791Z,66.97
2019-05-20T09:18:41.209Z,66.75
2019-05-20T09:23:48.585Z,66.44
2019-05-20T09:28:57.108Z,67.68
2019-05-20T09:34:04.703Z,68.07
2019-05-20T09:39:12.206Z,69.73
2019-05-20T09:44:19.628Z,68.86
2019-05-20T09:49:27.087Z,69.26
2019-05-20T09:54:34.498Z,70.97
2019-05-20T09:59:43.638Z,70.66
2019-05-20T10:04:50.964Z,69.22
2019-05-20T10:09:58.279Z,68.80
2019-05-20T10:15:05.996Z,69.61
2019-05-20T10:20:15.236Z,69.31
2019-05-20T10:25:23.184Z,69.66
2019-05-20T10:30:30.625Z,70.52
2019-05-20T10:35:37.978Z,69.62
2019-05-20T10:40:45.671Z,72.45
2019-05-20T10:45:53.997Z,70.74
2019-05-20T10:51:01.412Z,70.81
2019-05-20T10:56:08.859Z,71.08
2019-05-20T11:01:16.219Z,72.68
2019-05-20T11:06:23.543Z,72.79
2019-05-20T11:11:30.979Z,73.73
2019-05-20T11:16:38.206Z,74.60
2019-05-20T11:21:45.538Z,74.92
2019-05-20T11:26:52.977Z,76.16
2019-05-20T11:32:00.381Z,76.67
2019-05-20T11:37:07.754Z,76.60
2019-05-20T11:42:15.148Z,77.13
2019-05-20T11:47:22.513Z,77.72
2019-05-20T11:52:29.897Z,78.51
2019-05-20T11:57:37.312Z,78.92
2019-05-20T12:02:45.734Z,79.82
2019-05-20T12:07:53.055Z,79.31
2019-05-20T12:13:00.433Z,78.07
2019-05-20T12:18:07.642Z,75.41
2019-05-20T12:23:15.013Z,76.26
2019-05-20T12:28:22.346Z,76.75
2019-05-20T12:33:29.701Z,77.31
2019-05-20T12:38:37.355Z,76.13
2019-05-20T12:43:45.353Z,75.33
2019-05-20T12:48:53.360Z,75.16
2019-05-20T12:54:01.008Z,75.54
2019-05-20T12:59:09.024Z,75.46
2019-05-20T13:04:16.543Z,75.25
2019-05-20T13:09:23.906Z,75.74
2019-05-20T13:14:35.639Z,76.67
2019-05-20T13:19:43.286Z,75.30
2019-05-20T13:24:50.545Z,75.99
2019-05-20T13:29:58.105Z,75.13
2019-05-20T13:35:05.675Z,75.37
2019-05-20T13:40:13.991Z,75.61
2019-05-20T13:45:21.883Z,76.20
2019-05-20T13:50:29.247Z,76.65
2019-05-20T13:55:36.564Z,75.87
2019-05-20T14:00:43.910Z,77.21
2019-05-20T14:05:52.739Z,77.47
2019-05-20T14:11:04.224Z,77.71
2019-05-20T14:16:09.387Z,78.41
2019-05-20T14:21:16.894Z,78.10
2019-05-20T14:26:24.733Z,78.60
2019-05-20T14:31:32.404Z,77.23
2019-05-20T14:36:40.529Z,78.03
2019-05-20T14:41:48.441Z,78.23
2019-05-20T14:46:55.868Z,79.03
2019-05-20T14:52:03.579Z,80.05
2019-05-20T14:57:11.306Z,81.14
2019-05-20T15:02:18.835Z,80.89
2019-05-20T15:07:30.695Z,79.30
2019-05-20T15:12:35.459Z,79.23
2019-05-20T15:17:42.933Z,79.01
2019-05-20T15:22:50.253Z,78.79
2019-05-20T15:27:57.916Z,78.50
2019-05-20T15:33:05.394Z,77.56
2019-05-20T15:38:12.808Z,78.87
2019-05-20T15:43:20.127Z,78.68
2019-05-20T15:48:27.475Z,79.04
2019-05-20T15:53:34.816Z,78.52
2019-05-20T15:58:42.288Z,78.42
2019-05-20T16:03:51.489Z,77.44
2019-05-20T16:08:58.996Z,78.42
2019-05-20T16:14:06.434Z,78.80
2019-05-20T16:19:13.850Z,77.29
2019-05-20T16:24:21.536Z,76.21
2019-05-20T16:29:29.260Z,78.29
2019-05-20T16:34:36.827Z,78.27
2019-05-20T16:39:44.440Z,78.42
2019-05-20T16:44:51.955Z,78.44
2019-05-20T16:49:59.610Z,79.49
2019-05-20T16:55:07.193Z,79.12
2019-05-20T17:00:30.961Z,79.27
2019-05-20T17:05:26.446Z,79.15
2019-05-20T17:10:33.963Z,79.40
2019-05-20T17:15:41.809Z,79.37
2019-05-20T17:20:49.102Z,79.61
2019-05-20T17:25:56.604Z,79.34
2019-05-20T17:31:04.053Z,79.17
2019-05-20T17:36:11.593Z,78.56
2019-05-20T17:41:19.006Z,78.81
2019-05-20T17:46:26.704Z,78.55
2019-05-20T17:51:34.126Z,78.75
2019-05-20T17:56:41.406Z,78.78
2019-05-20T18:01:48.948Z,78.67
2019-05-20T18:06:56.654Z,78.86
2019-05-20T18:12:04.091Z,79.07
2019-05-20T18:17:11.635Z,78.73
2019-05-20T18:22:19.412Z,79.13
2019-05-20T18:27:26.955Z,79.18
2019-05-20T18:32:34.634Z,79.16
2019-05-20T18:37:42.301Z,79.16
2019-05-20T18:42:49.993Z,79.47
2019-05-20T18:47:57.778Z,80.95
2019-05-20T18:53:05.443Z,80.26
2019-05-20T18:58:13.048Z,81.31
2019-05-20T19:03:20.946Z,80.95
2019-05-20T19:08:28.674Z,80.53
2019-05-20T19:13:36.111Z,80.09
2019-05-20T19:18:43.522Z,80.29
2019-05-20T19:23:51.092Z,81.13
2019-05-20T19:28:58.516Z,81.18
2019-05-20T19:34:06.003Z,80.24
2019-05-20T19:39:13.591Z,80.49
2019-05-20T19:44:21.184Z,80.09
2019-05-20T19:49:30.826Z,81.00
2019-05-20T19:54:38.299Z,81.63
2019-05-20T19:59:45.646Z,81.09
2019-05-20T20:04:53.070Z,80.58
2019-05-20T20:10:00.478Z,79.72
2019-05-20T20:15:08.640Z,78.64
2019-05-20T20:20:16.928Z,78.42
2019-05-20T20:25:25.364Z,78.26
2019-05-20T20:30:32.638Z,78.19
2019-05-20T20:35:39.969Z,78.23
2019-05-20T20:40:47.374Z,78.39
2019-05-20T20:45:54.802Z,78.87
2019-05-20T20:51:02.233Z,79.42
2019-05-20T20:56:24.138Z,78.58
2019-05-20T21:01:18.837Z,78.41
2019-05-20T21:06:26.228Z,78.71
2019-05-20T21:11:33.635Z,77.96
2019-05-20T21:16:41.054Z,78.24
2019-05-20T21:21:48.457Z,77.99
2019-05-20T21:26:55.867Z,77.37
2019-05-20T21:32:03.345Z,78.35
2019-05-20T21:37:10.809Z,77.40
2019-05-20T21:42:18.157Z,78.01
2019-05-20T21:47:25.549Z,77.24
2019-05-20T21:52:32.969Z,78.68
2019-05-20T21:57:40.291Z,77.59
2019-05-20T22:02:47.582Z,77.63
2019-05-20T22:07:55.057Z,78.30
2019-05-20T22:13:02.511Z,77.04
2019-05-20T22:18:10.097Z,76.47
2019-05-20T22:23:34.919Z,76.47
2019-05-20T22:28:42.479Z,78.17
2019-05-20T22:33:49.919Z,79.14
2019-05-20T22:38:57.362Z,78.88
2019-05-20T22:44:04.863Z,79.34
2019-05-20T22:49:12.326Z,77.25
2019-05-20T22:54:19.764Z,75.98
2019-05-20T22:59:27.233Z,76.77
2019-05-20T23:04:34.751Z,75.85
2019-05-20T23:09:42.165Z,76.86
2019-05-20T23:14:49.578Z,77.34
2019-05-20T23:19:57.033Z,76.95
2019-05-20T23:25:05.678Z,77.70
2019-05-20T23:30:14.019Z,76.26
2019-05-20T23:35:21.402Z,76.17
2019-05-20T23:40:28.817Z,75.95
2019-05-20T23:45:36.319Z,75.26
2019-05-20T23:50:43.741Z,74.76
2019-05-20T23:55:51.369Z,75.62
